createdAt,value
2022-07-29T00:00:27.806Z,0.75
2022-07-29T00:05:30.351Z,0.93
2022-07-29T00:10:32.898Z,1.08
2022-07-29T00:15:35.287Z,0.95
2022-07-29T00:20:37.500Z,0.70
2022-07-29T00:25:39.734Z,1.00
2022-07-29T00:30:43.952Z,0.75
2022-07-29T00:35:46.177Z,0.68
2022-07-29T00:40:48.494Z,0.98
2022-07-29T00:45:50.694Z,0.90
2022-07-29T00:50:53.120Z,0.85
2022-07-29T00:55:56.182Z,1.10
2022-07-29T01:00:59.022Z,0.95
2022-07-29T01:06:01.527Z,0.95
2022-07-29T01:11:03.909Z,0.90
2022-07-29T01:16:18.498Z,1.00
2022-07-29T01:21:52.255Z,1.13
2022-07-29T01:27:09.735Z,1.13
2022-07-29T01:32:27.815Z,0.73
2022-07-29T01:37:39.655Z,0.95
2022-07-29T01:42:46.340Z,0.82
2022-07-29T01:48:03.615Z,0.90
2022-07-29T01:53:08.546Z,1.20
2022-07-29T01:58:12.022Z,0.90
2022-07-29T02:03:14.754Z,0.93
2022-07-29T02:08:18.797Z,0.82
2022-07-29T02:13:22.257Z,1.13
2022-07-29T02:18:26.144Z,0.82
2022-07-29T02:23:28.505Z,0.80
2022-07-29T02:28:32.238Z,0.90
2022-07-29T02:33:35.026Z,1.08
2022-07-29T02:38:53.057Z,0.70
2022-07-29T02:43:58.385Z,0.63
2022-07-29T02:49:07.896Z,1.35
2022-07-29T02:54:11.615Z,1.00
2022-07-29T02:59:15.901Z,0.82
2022-07-29T03:04:20.344Z,1.00
2022-07-29T03:09:23.980Z,0.88
2022-07-29T03:14:26.577Z,1.05
2022-07-29T03:19:29.268Z,0.90
2022-07-29T03:24:37.077Z,1.15
2022-07-29T03:29:39.290Z,1.23
2022-07-29T03:34:42.106Z,0.80
2022-07-29T03:39:45.252Z,1.20
2022-07-29T03:44:49.011Z,1.05
2022-07-29T03:49:53.879Z,1.17
2022-07-29T03:54:56.070Z,1.33
2022-07-29T03:59:58.708Z,0.80
2022-07-29T04:05:00.967Z,0.95
2022-07-29T04:10:03.196Z,0.85
2022-07-29T04:15:06.155Z,1.00
2022-07-29T04:20:09.111Z,1.42
2022-07-29T04:25:11.325Z,1.50
2022-07-29T04:30:13.686Z,1.90
2022-07-29T04:35:15.998Z,4.00
2022-07-29T04:40:18.385Z,1.60
2022-07-29T04:45:22.297Z,1.50
2022-07-29T04:50:24.968Z,1.10
2022-07-29T04:55:27.322Z,1.40
2022-07-29T05:00:33.575Z,0.97
2022-07-29T05:05:36.110Z,0.93
2022-07-29T05:10:39.028Z,0.93
2022-07-29T05:15:41.341Z,0.90
2022-07-29T05:20:43.638Z,1.20
2022-07-29T05:25:47.109Z,2.50
2022-07-29T05:30:50.410Z,3.40
2022-07-29T05:35:56.209Z,3.50
2022-07-29T05:41:00.908Z,1.70
2022-07-29T05:46:03.309Z,1.65
2022-07-29T05:51:05.953Z,1.48
2022-07-29T05:56:08.296Z,1.73
2022-07-29T06:01:10.511Z,1.17
2022-07-29T06:06:13.073Z,1.50
2022-07-29T06:11:15.484Z,2.03
2022-07-29T06:16:29.957Z,1.45
2022-07-29T06:21:32.769Z,2.20
2022-07-29T06:26:39.248Z,1.63
2022-07-29T06:31:42.189Z,1.80
2022-07-29T06:36:44.503Z,2.00
2022-07-29T06:41:51.546Z,1.85
2022-07-29T06:46:55.607Z,2.03
2022-07-29T06:51:57.899Z,1.85
2022-07-29T06:57:00.204Z,0.90
2022-07-29T07:02:02.536Z,1.48
2022-07-29T07:07:04.799Z,1.20
2022-07-29T07:12:07.353Z,0.95
2022-07-29T07:17:09.650Z,1.13
2022-07-29T07:22:12.080Z,1.40
2022-07-29T07:27:14.597Z,1.98
2022-07-29T07:32:17.399Z,1.17
2022-07-29T07:37:21.421Z,1.40
2022-07-29T07:42:23.688Z,1.92
2022-07-29T07:47:27.913Z,2.00
2022-07-29T07:52:30.396Z,2.35
2022-07-29T07:57:32.720Z,2.30
2022-07-29T08:02:35.030Z,2.50
2022-07-29T08:07:37.447Z,1.95
2022-07-29T08:12:39.849Z,1.90
2022-07-29T08:17:42.491Z,2.17
2022-07-29T08:22:45.838Z,1.95
2022-07-29T08:27:48.552Z,2.47
2022-07-29T08:32:55.144Z,2.95
2022-07-29T08:37:57.979Z,3.65
2022-07-29T08:43:06.585Z,3.33
2022-07-29T08:48:10.151Z,3.03
2022-07-29T08:53:14.778Z,3.03
2022-07-29T08:58:18.060Z,3.20
2022-07-29T09:03:28.551Z,2.70
2022-07-29T09:08:34.861Z,3.17
2022-07-29T09:13:37.212Z,3.63
2022-07-29T09:18:42.478Z,3.05
2022-07-29T09:24:08.976Z,2.75
2022-07-29T09:29:15.324Z,2.85
2022-07-29T09:34:25.852Z,2.80
2022-07-29T09:39:37.349Z,2.60
2022-07-29T09:44:50.780Z,2.80
2022-07-29T09:50:01.378Z,3.17
2022-07-29T09:55:08.028Z,2.85
2022-07-29T10:00:13.393Z,3.55
2022-07-29T10:05:25.415Z,2.92
2022-07-29T10:10:29.921Z,3.40
2022-07-29T10:15:37.956Z,3.88
2022-07-29T10:20:41.020Z,3.92
2022-07-29T10:25:46.186Z,4.20
2022-07-29T10:30:51.712Z,3.50
2022-07-29T10:36:11.972Z,3.80
2022-07-29T10:41:43.832Z,3.65
2022-07-29T10:46:47.080Z,3.92
2022-07-29T10:51:58.793Z,3.00
2022-07-29T10:57:54.098Z,2.50
2022-07-29T11:02:52.927Z,2.80
2022-07-29T11:08:20.488Z,2.97
2022-07-29T11:13:53.183Z,2.88
2022-07-29T11:19:14.416Z,2.80
2022-07-29T11:24:29.238Z,2.65
2022-07-29T11:29:32.891Z,2.65
2022-07-29T11:34:42.545Z,2.53
2022-07-29T11:39:44.799Z,1.92
2022-07-29T11:44:55.938Z,2.30
2022-07-29T11:50:00.680Z,2.10
2022-07-29T11:55:09.580Z,2.28
2022-07-29T12:00:14.586Z,2.40
2022-07-29T12:05:35.927Z,2.42
2022-07-29T12:10:39.802Z,2.92
2022-07-29T12:15:46.977Z,2.53
2022-07-29T12:20:50.147Z,2.10
2022-07-29T12:25:53.079Z,2.28
2022-07-29T12:30:56.484Z,2.67
2022-07-29T12:36:14.302Z,2.97
2022-07-29T12:41:20.176Z,3.15
2022-07-29T12:46:22.666Z,2.35
2022-07-29T12:51:38.067Z,3.03
2022-07-29T12:56:43.700Z,2.95
2022-07-29T13:01:50.005Z,3.05
2022-07-29T13:07:02.368Z,3.15
2022-07-29T13:12:10.955Z,2.38
2022-07-29T13:17:28.731Z,2.95
2022-07-29T13:22:35.139Z,2.15
2022-07-29T13:27:39.879Z,2.47
2022-07-29T13:32:42.861Z,3.00
2022-07-29T13:37:46.301Z,3.08
2022-07-29T13:42:48.639Z,2.78
2022-07-29T13:47:50.875Z,2.35
2022-07-29T13:52:53.687Z,2.63
2022-07-29T13:57:55.934Z,2.50
2022-07-29T14:02:58.340Z,2.63
2022-07-29T14:08:00.629Z,2.70
2022-07-29T14:13:02.983Z,2.15
2022-07-29T14:18:05.558Z,2.42
2022-07-29T14:23:07.851Z,2.78
2022-07-29T14:28:11.641Z,2.63
2022-07-29T14:33:17.167Z,2.83
2022-07-29T14:38:19.525Z,2.03
2022-07-29T14:43:21.815Z,2.47
2022-07-29T14:48:24.154Z,2.45
2022-07-29T14:53:26.449Z,2.47
2022-07-29T14:58:29.007Z,2.65
2022-07-29T15:03:31.365Z,1.73
2022-07-29T15:08:36.185Z,2.80
2022-07-29T15:13:38.467Z,2.58
2022-07-29T15:18:40.895Z,2.67
2022-07-29T15:23:43.146Z,2.60
2022-07-29T15:28:45.997Z,2.13
2022-07-29T15:33:48.606Z,2.20
2022-07-29T15:38:54.309Z,2.35
2022-07-29T15:43:56.547Z,1.65
2022-07-29T15:48:59.230Z,2.15
2022-07-29T15:54:03.938Z,1.75
2022-07-29T15:59:06.292Z,1.98
2022-07-29T16:04:08.621Z,1.83
2022-07-29T16:09:11.235Z,2.70
2022-07-29T16:14:13.833Z,2.15
2022-07-29T16:19:16.208Z,2.00
2022-07-29T16:24:18.841Z,1.98
2022-07-29T16:29:21.327Z,2.00
2022-07-29T16:34:23.708Z,1.90
2022-07-29T16:39:26.116Z,1.90
2022-07-29T16:44:28.642Z,1.75
2022-07-29T16:49:32.019Z,2.08
2022-07-29T16:54:34.349Z,1.85
2022-07-29T16:59:36.575Z,2.03
2022-07-29T17:04:45.815Z,1.65
2022-07-29T17:09:50.582Z,1.88
2022-07-29T17:14:56.187Z,1.75
2022-07-29T17:19:58.446Z,1.70
2022-07-29T17:25:00.706Z,1.33
2022-07-29T17:30:05.698Z,2.05
2022-07-29T17:35:28.868Z,1.63
2022-07-29T17:40:31.284Z,1.67
2022-07-29T17:45:49.502Z,1.95
2022-07-29T17:50:52.764Z,1.55
2022-07-29T17:55:56.293Z,2.10
2022-07-29T18:00:58.610Z,1.63
2022-07-29T18:06:01.454Z,2.30
2022-07-29T18:11:03.970Z,2.08
2022-07-29T18:16:07.935Z,1.90
2022-07-29T18:21:10.706Z,1.63
2022-07-29T18:26:13.128Z,1.65
2022-07-29T18:31:15.565Z,1.55
2022-07-29T18:36:18.053Z,1.88
2022-07-29T18:41:20.278Z,1.70
2022-07-29T18:46:22.508Z,1.92
2022-07-29T18:51:25.282Z,1.80
2022-07-29T18:56:30.398Z,2.00
2022-07-29T19:01:32.941Z,1.58
2022-07-29T19:06:35.411Z,1.50
2022-07-29T19:11:38.258Z,1.38
2022-07-29T19:16:40.507Z,1.88
2022-07-29T19:21:43.265Z,1.58
2022-07-29T19:26:48.552Z,1.70
2022-07-29T19:31:50.924Z,2.05
2022-07-29T19:36:53.451Z,1.90
2022-07-29T19:41:59.213Z,1.90
2022-07-29T19:47:04.093Z,1.98
2022-07-29T19:52:07.901Z,1.95
2022-07-29T19:57:10.203Z,2.22
2022-07-29T20:02:13.209Z,1.90
2022-07-29T20:07:15.582Z,2.13
2022-07-29T20:12:17.882Z,2.30
2022-07-29T20:17:22.195Z,1.85
2022-07-29T20:22:24.502Z,1.90
2022-07-29T20:27:26.754Z,2.35
2022-07-29T20:32:28.990Z,2.38
2022-07-29T20:37:32.582Z,2.65
2022-07-29T20:42:36.409Z,2.53
2022-07-29T20:47:38.742Z,2.65
2022-07-29T20:52:43.235Z,2.10
2022-07-29T20:57:45.567Z,2.47
2022-07-29T21:02:48.077Z,2.53
2022-07-29T21:07:52.544Z,3.00
2022-07-29T21:12:57.818Z,2.72
2022-07-29T21:18:05.558Z,3.00
2022-07-29T21:23:08.210Z,3.05
2022-07-29T21:28:29.169Z,3.50
2022-07-29T21:33:33.093Z,3.33
2022-07-29T21:38:37.188Z,3.63
2022-07-29T21:43:41.734Z,7.13
2022-07-29T21:48:44.757Z,4.05
2022-07-29T21:53:47.085Z,3.30
2022-07-29T21:58:49.395Z,4.30
2022-07-29T22:03:51.681Z,3.72
2022-07-29T22:08:53.910Z,3.45
2022-07-29T22:13:56.569Z,3.78
2022-07-29T22:18:58.817Z,3.40
2022-07-29T22:24:01.443Z,4.07
2022-07-29T22:29:03.783Z,3.50
2022-07-29T22:34:11.660Z,3.28
2022-07-29T22:39:15.538Z,3.63
2022-07-29T22:44:19.880Z,3.58
2022-07-29T22:49:22.492Z,3.20
2022-07-29T22:54:24.931Z,3.65
2022-07-29T22:59:27.142Z,2.75
2022-07-29T23:04:30.174Z,3.28
2022-07-29T23:09:32.683Z,3.50
2022-07-29T23:14:37.692Z,3.33
2022-07-29T23:19:39.899Z,3.63
2022-07-29T23:24:42.304Z,3.78
2022-07-29T23:29:44.641Z,3.58
2022-07-29T23:34:46.876Z,3.75
2022-07-29T23:39:49.234Z,4.38
2022-07-29T23:44:51.803Z,3.63
2022-07-29T23:49:55.410Z,3.65
2022-07-29T23:55:36.407Z,3.55
